• Join FlightAware (Why Join?)
  • Login
  • US Flag 
02:52AM EDT


 

Airport Tracker/Info


-or-


 

Live Flight TrackerFlight Track Log ✈ SKW7363 ✈ 17-Oct-2013 ✈ KABR - KMSP

Flight Track Log - Related Links

Times and Time Zones

All times are in EDT time to prevent confusion due to time zone crossing. See the SKW7363 flight status page for this flight to view local times or setup timezone preferences in your user account.

Time Position Orientation Groundspeed Altitude Reporting Facility
EDT Latitude Longitude Course Direction KTS MPH feet Rate Location/Type
02:13PM 45.4606 -98.3722 115° Southeast 245 282 7,900  Level Minneapolis Center
02:14PM 45.4069 -98.3164 144° Southeast 255 293 10,700 2,340 Climbing Minneapolis Center
02:15PM 45.3790 -97.6347 113° Southeast  Level Estimated
02:15PM 45.3750 -98.2111 113° Southeast 284 327 12,800  Level Minneapolis Center
02:16PM 45.3282 -97.5241 123° Southeast  Level FlightAware Approximate
02:16PM 45.3450 -98.0981 111° Southeast 299 344 15,500  Level Minneapolis Center
02:17PM 45.3171 -97.3930 112° Southeast  Level Estimated
02:17PM 45.3081 -97.9708 112° Southeast 324 373 17,800  Level Minneapolis Center
02:18PM 45.2733 -97.8444 111° Southeast 340 391 20,000 2,160 Climbing Minneapolis Center
02:19PM 45.2372 -97.7133 111° Southeast 353 406 22,300 1,440 Climbing Minneapolis Center
02:20PM 45.1975 -97.5794 113° Southeast 364 419 23,000 1,200 Climbing Minneapolis Center
02:21PM 45.1494 -97.4083 112° Southeast 386 444 24,900 1,800 Climbing Minneapolis Center
02:22PM 45.1100 -97.2678 112° Southeast 387 445 26,800 1,500 Climbing Minneapolis Center
02:23PM 45.0700 -97.1286 112° Southeast 383 441 28,100 1,020 Climbing Minneapolis Center
02:24PM 45.0275 -96.9853 113° Southeast 392 451 29,000 420 Climbing Minneapolis Center
02:25PM 44.9828 -96.8364 113° Southeast 406 467 29,000  Level Minneapolis Center
02:27PM 44.9383 -96.6806 112° Southeast 424 488 29,000  Level Minneapolis Center
02:28PM 44.8836 -96.4944 112° Southeast 429 494 29,000  Level Minneapolis Center
02:29PM 44.8381 -96.3417 113° Southeast 423 487 29,000 -480 Level Minneapolis Center
02:30PM 44.7931 -96.1917 113° Southeast 417 480 28,000 -1,200 Descending Minneapolis Center
02:31PM 44.7475 -96.0392 113° Southeast 421 484 26,600 -1,320 Descending Minneapolis Center
02:32PM 44.7064 -95.9014 113° Southeast 389 448 25,300 -1,260 Descending Minneapolis Center
02:33PM 44.6658 -95.7703 113° Southeast 369 425 24,000 -1,260 Descending Minneapolis Center
02:34PM 44.6242 -95.6342 113° Southeast 373 429 22,700 -1,500 Descending Minneapolis Center
02:35PM 44.5697 -95.4547 113° Southeast 404 465 21,000 -1,440 Descending Minneapolis Center
02:36PM 44.5208 -95.2958 113° Southeast 430 495 19,700 -1,380 Descending Minneapolis Center
02:37PM 44.4747 -95.1431 113° Southeast 431 496 18,200 -1,500 Descending Minneapolis Center
02:38PM 44.4981 -94.9919 78° East 411 473 16,700 -1,320 Descending Minneapolis Center
02:39PM 44.5361 -94.8369 71° East 418 481 15,500 -1,260 Descending Minneapolis Center
02:40PM 44.5789 -94.6619 71° East 403 464 14,100 -1,260 Descending Minneapolis Center
02:41PM 44.6089 -94.5319 72° East 395 455 13,000 -1,140 Descending Minneapolis Center
02:42PM 44.6406 -94.3967 72° East 366 421 11,800 -1,020 Descending Minneapolis Center
02:43PM 44.6758 -94.2386 73° East 354 407 11,000 -420 Descending Minneapolis Center
02:44PM 44.7067 -94.1028 72° East 365 420 11,000  Level Minneapolis Center
02:45PM 44.7372 -93.9650 73° East 369 425 11,000  Level Minneapolis Center
02:46PM 44.7672 -93.8275 73° East 368 423 11,000  Level Minneapolis Center
02:47PM 44.7975 -93.6914 73° East 364 419 11,000 -360 Level Minneapolis Center
02:48PM 44.8258 -93.5619 73° East 346 398 10,300 -1,260 Descending Minneapolis Center
02:49PM 44.8503 -93.4517 73° East 299 344 8,400 -1,140 Descending Minneapolis Center
02:50PM 44.8514 -93.3353 89° East 257 296 8,000 -540 Descending Minneapolis Center
02:51PM 44.7911 -93.3131 165° South 227 261 7,400 -840 Descending Minneapolis Center
02:52PM 44.7311 -93.3108 178° South 225 259 6,300 -1,440 Descending Minneapolis Center
02:53PM 44.6928 -93.2581 136° Southeast 248 285 4,500 -1,500 Descending Minneapolis Center
02:54PM 44.7475 -93.2114 31° Northeast 197 227 3,300 -960 Descending Minneapolis Center
02:56PM 44.7894 -93.2172 354° North 161 185 2,600 -780 Descending Minneapolis Center
02:57PM 44.8275 -93.2269 350° North 144 166 1,800 -780 Descending Minneapolis Center